Time;durP1;ratioP1;P1;durP2;ratioP2;P2;SDS_P1;SDS_P2;PMS_P1;PMS_P2;Temp;Humidity;BMP_temperature;BMP_pressure;BME280_temperature;BME280_humidity;BME280_pressure;Samples;Min_cycle;Max_cycle;Signal;HPM_P1;HPM_P2
2021/12/22 00:01:36;;;;;;;7.10;5.03;;;0.50;99.90;;;;;;5032360;28;20435;-51
2021/12/22 00:04:02;;;;;;;8.83;5.00;;;0.50;99.90;;;;;;5032382;28;20230;-49
2021/12/22 00:06:31;;;;;;;6.13;5.20;;;0.50;99.90;;;;;;5032167;28;20453;-49
2021/12/22 00:08:58;;;;;;;7.67;5.37;;;0.50;99.90;;;;;;5032272;28;20410;-51
2021/12/22 00:11:23;;;;;;;6.13;4.80;;;0.50;99.90;;;;;;5032223;28;20880;-53
2021/12/22 00:13:49;;;;;;;5.70;4.80;;;0.50;99.90;;;;;;5032554;28;20494;-49
2021/12/22 00:16:15;;;;;;;6.40;5.00;;;0.50;99.90;;;;;;5031742;28;20632;-49
2021/12/22 00:18:40;;;;;;;6.17;5.03;;;0.50;99.90;;;;;;5032214;28;20180;-52
2021/12/22 00:21:06;;;;;;;7.10;4.90;;;0.50;99.90;;;;;;5031777;28;20227;-54
2021/12/22 00:23:32;;;;;;;5.60;4.80;;;0.50;99.90;;;;;;5032170;28;20657;-49
2021/12/22 00:25:57;;;;;;;6.57;4.60;;;0.50;99.90;;;;;;5031768;28;20290;-50
2021/12/22 00:28:23;;;;;;;6.53;5.10;;;0.40;99.90;;;;;;5031070;28;20168;-50
2021/12/22 00:30:50;;;;;;;6.87;5.17;;;0.40;99.90;;;;;;5046689;28;20243;-53
2021/12/22 00:33:17;;;;;;;7.10;4.90;;;0.40;99.90;;;;;;5030593;28;20167;-52
2021/12/22 00:35:45;;;;;;;5.93;4.90;;;0.40;99.90;;;;;;5030847;28;20414;-50
2021/12/22 00:38:21;;;;;;;6.03;4.70;;;0.30;99.90;;;;;;5031239;28;20413;-49
2021/12/22 00:40:48;;;;;;;7.10;4.90;;;0.30;99.90;;;;;;5031962;28;20426;-49
2021/12/22 00:43:15;;;;;;;6.70;5.40;;;0.30;99.90;;;;;;5031004;28;20489;-51
2021/12/22 00:45:41;;;;;;;6.60;4.60;;;0.30;99.90;;;;;;5031589;28;20442;-49
2021/12/22 00:48:08;;;;;;;5.73;4.80;;;0.30;99.90;;;;;;5031841;28;20816;-51
2021/12/22 00:50:36;;;;;;;7.10;4.70;;;0.30;99.90;;;;;;5031740;28;20422;-55
2021/12/22 00:53:02;;;;;;;6.17;4.83;;;0.30;99.90;;;;;;5030964;28;20457;-50
2021/12/22 00:55:28;;;;;;;8.60;4.63;;;0.30;99.90;;;;;;5031577;28;20407;-49
2021/12/22 00:57:53;;;;;;;6.17;4.63;;;0.30;99.90;;;;;;5031614;28;20803;-49
2021/12/22 01:00:22;;;;;;;5.70;4.27;;;0.20;99.90;;;;;;5031733;28;20187;-50
2021/12/22 01:02:47;;;;;;;5.47;4.50;;;0.20;99.90;;;;;;5031722;28;20180;-50
2021/12/22 01:05:15;;;;;;;7.20;4.77;;;0.20;99.90;;;;;;5031135;28;20438;-49
2021/12/22 01:07:42;;;;;;;5.90;4.90;;;0.20;99.90;;;;;;5031849;28;20194;-50
2021/12/22 01:10:09;;;;;;;6.73;4.43;;;0.20;99.90;;;;;;5031416;28;20473;-52
2021/12/22 01:12:35;;;;;;;5.67;4.30;;;0.20;99.90;;;;;;5031499;28;20429;-49
2021/12/22 01:15:01;;;;;;;6.17;4.20;;;0.20;99.90;;;;;;5029909;28;20451;-51
2021/12/22 01:17:34;;;;;;;5.57;4.63;;;0.20;99.90;;;;;;5033913;28;20824;-50
2021/12/22 01:20:07;;;;;;;5.90;4.57;;;0.10;99.90;;;;;;5035289;28;20452;-50
2021/12/22 01:22:47;;;;;;;6.27;4.53;;;0.10;99.90;;;;;;5070619;22;20482;-54
2021/12/22 01:25:15;;;;;;;5.20;4.30;;;0.20;99.90;;;;;;5033703;28;20986;-53
2021/12/22 01:27:43;;;;;;;5.43;4.30;;;0.10;99.90;;;;;;5034172;28;20452;-53
2021/12/22 01:30:15;;;;;;;5.70;4.57;;;0.10;99.90;;;;;;5035365;28;20415;-52
2021/12/22 01:32:42;;;;;;;4.97;4.47;;;0.10;99.90;;;;;;5034477;28;20969;-50
2021/12/22 01:35:14;;;;;;;5.70;4.57;;;0.10;99.90;;;;;;5035673;28;20465;-49
2021/12/22 01:37:40;;;;;;;7.47;4.27;;;0.10;99.90;;;;;;5035584;28;20729;-51
2021/12/22 01:40:08;;;;;;;6.30;4.17;;;0.10;99.90;;;;;;5035182;28;20422;-51
2021/12/22 01:42:34;;;;;;;5.53;4.30;;;0.10;99.90;;;;;;5035168;28;20231;-50
2021/12/22 01:50:45;;;;;;;6.27;4.50;;;0.20;99.90;;;;;;5035407;28;20401;-50
2021/12/22 01:53:22;;;;;;;5.73;4.70;;;0.20;99.90;;;;;;5034976;28;20433;-50
2021/12/22 01:56:21;;;;;;;5.40;4.50;;;0.10;99.90;;;;;;5034726;28;20429;-50
2021/12/22 01:58:49;;;;;;;5.87;4.43;;;0.10;99.90;;;;;;4934822;29;20419;-49
2021/12/22 02:01:15;;;;;;;4.83;4.00;;;0.10;99.90;;;;;;4935131;29;20454;-53
2021/12/22 02:03:44;;;;;;;5.47;4.20;;;0.10;99.90;;;;;;4935133;29;20418;-54
2021/12/22 02:06:10;;;;;;;5.23;4.57;;;0.10;99.90;;;;;;4934894;29;20901;-49
2021/12/22 02:08:37;;;;;;;6.20;4.63;;;0.10;99.90;;;;;;4935386;29;20415;-52
2021/12/22 02:11:03;;;;;;;5.80;4.67;;;0.10;99.90;;;;;;4935211;29;20254;-52
2021/12/22 02:13:34;;;;;;;5.87;4.37;;;0.00;99.90;;;;;;4935238;29;20415;-49
2021/12/22 02:16:07;;;;;;;5.33;4.20;;;0.00;99.90;;;;;;4934620;29;20523;-49
2021/12/22 02:18:39;;;;;;;6.03;4.27;;;0.00;99.90;;;;;;4935376;29;20438;-53
2021/12/22 02:21:06;;;;;;;6.70;4.53;;;0.00;99.90;;;;;;4934668;29;20789;-51
2021/12/22 02:23:33;;;;;;;5.07;4.30;;;0.00;99.90;;;;;;4935085;29;20438;-49
2021/12/22 02:26:08;;;;;;;4.63;4.10;;;0.00;99.90;;;;;;4934388;29;20554;-52
2021/12/22 02:28:36;;;;;;;5.20;4.20;;;0.00;99.90;;;;;;4935018;29;20971;-51
2021/12/22 02:31:03;;;;;;;5.53;4.40;;;0.10;99.90;;;;;;4934410;29;20817;-51
2021/12/22 02:33:36;;;;;;;5.40;4.07;;;0.10;99.90;;;;;;4934816;29;20494;-49
2021/12/22 02:38:32;;;;;;;5.03;4.17;;;0.00;99.90;;;;;;5034541;28;20425;-50
2021/12/22 02:40:58;;;;;;;5.27;4.00;;;-0.10;99.90;;;;;;5034079;28;20622;-52
2021/12/22 02:43:30;;;;;;;4.20;3.80;;;-0.10;99.90;;;;;;5033904;28;20909;-49
2021/12/22 02:45:55;;;;;;;4.93;4.37;;;-0.10;99.90;;;;;;5033858;28;20231;-51
2021/12/22 02:48:23;;;;;;;7.37;4.20;;;-0.10;99.90;;;;;;5033878;28;20450;-50
2021/12/22 02:50:49;;;;;;;4.97;4.27;;;-0.20;99.90;;;;;;5034062;28;20186;-50
2021/12/22 02:53:16;;;;;;;6.07;4.27;;;-0.20;99.90;;;;;;5032390;28;20488;-50
2021/12/22 02:55:50;;;;;;;5.40;4.27;;;-0.20;99.90;;;;;;5015991;28;20418;-49
2021/12/22 02:58:33;;;;;;;4.90;4.03;;;-0.20;99.90;;;;;;5033662;28;20756;-51
2021/12/22 03:05:52;;;;;;;5.43;4.20;;;-0.30;99.90;;;;;;5033477;28;20488;-49
2021/12/22 03:08:18;;;;;;;6.13;4.30;;;-0.30;99.90;;;;;;5033703;28;20540;-50
2021/12/22 03:10:43;;;;;;;4.83;4.20;;;-0.30;99.90;;;;;;5033424;28;20175;-50
2021/12/22 03:13:09;;;;;;;5.43;4.10;;;-0.30;99.90;;;;;;5033447;28;20249;-50
2021/12/22 03:15:35;;;;;;;5.50;4.07;;;-0.40;99.90;;;;;;5032996;28;20239;-50
2021/12/22 03:18:03;;;;;;;4.30;3.87;;;-0.30;99.90;;;;;;5033931;28;20179;-54
2021/12/22 03:20:29;;;;;;;4.90;4.00;;;-0.40;99.90;;;;;;5033174;28;20187;-50
2021/12/22 03:22:55;;;;;;;4.60;4.10;;;-0.40;99.90;;;;;;5033378;28;20458;-51
2021/12/22 03:25:26;;;;;;;5.13;4.17;;;-0.40;99.90;;;;;;5032845;28;20564;-57
2021/12/22 03:27:52;;;;;;;4.63;3.80;;;-0.40;99.90;;;;;;5033284;28;20410;-50
2021/12/22 03:30:22;;;;;;;6.00;4.50;;;-0.50;99.90;;;;;;5033317;28;20438;-50
2021/12/22 03:32:48;;;;;;;4.03;3.63;;;-0.50;99.90;;;;;;5032895;28;20421;-52
2021/12/22 03:35:19;;;;;;;3.70;3.17;;;-0.50;99.90;;;;;;5032912;28;20775;-52
2021/12/22 03:37:49;;;;;;;4.73;4.03;;;-0.50;99.90;;;;;;5032900;28;20434;-54
2021/12/22 03:40:15;;;;;;;5.10;4.00;;;-0.50;99.90;;;;;;5027387;28;20903;-51
2021/12/22 03:42:41;;;;;;;6.03;4.07;;;-0.60;99.90;;;;;;5032397;28;20958;-51
2021/12/22 03:45:07;;;;;;;5.03;3.77;;;-0.60;99.90;;;;;;5032533;28;20552;-51
2021/12/22 03:47:33;;;;;;;4.53;3.70;;;-0.60;99.90;;;;;;5032597;28;20545;-50
2021/12/22 03:49:59;;;;;;;5.37;4.03;;;-0.60;99.90;;;;;;5032943;28;20171;-49
2021/12/22 03:52:24;;;;;;;4.73;4.07;;;-0.70;99.90;;;;;;5032488;28;20196;-56
2021/12/22 03:54:54;;;;;;;4.30;3.57;;;-0.70;99.90;;;;;;5031794;28;20203;-50
2021/12/22 03:57:20;;;;;;;5.10;3.67;;;-0.70;99.90;;;;;;5032618;28;20168;-51
2021/12/22 03:59:46;;;;;;;6.17;4.03;;;-0.70;99.90;;;;;;5032741;28;20441;-50
2021/12/22 04:02:12;;;;;;;4.93;4.10;;;-0.80;99.90;;;;;;5032512;28;20195;-54
2021/12/22 04:04:38;;;;;;;5.37;4.10;;;-0.80;99.90;;;;;;5031919;28;20206;-49
2021/12/22 04:07:04;;;;;;;4.73;4.20;;;-0.80;99.90;;;;;;5032763;28;20441;-50
2021/12/22 04:09:30;;;;;;;4.67;3.67;;;-0.80;99.90;;;;;;5032247;28;20419;-50
2021/12/22 04:11:56;;;;;;;5.43;4.33;;;-0.80;99.90;;;;;;5032319;28;20628;-55
2021/12/22 04:14:21;;;;;;;6.30;3.93;;;-0.90;99.90;;;;;;5032059;28;20172;-54
2021/12/22 04:16:47;;;;;;;4.13;3.63;;;-0.80;99.90;;;;;;5032093;28;20164;-52
2021/12/22 04:19:12;;;;;;;4.60;3.77;;;-0.90;99.90;;;;;;5032002;28;20178;-52
2021/12/22 04:21:38;;;;;;;4.50;3.70;;;-0.90;99.90;;;;;;5031760;28;20627;-56
2021/12/22 04:24:06;;;;;;;4.50;3.90;;;-0.90;99.90;;;;;;5032030;28;20175;-51
2021/12/22 04:26:32;;;;;;;6.23;4.10;;;-0.90;99.90;;;;;;5031486;28;20165;-49
2021/12/22 04:28:58;;;;;;;4.70;3.73;;;-0.90;99.90;;;;;;5032241;28;20457;-49
2021/12/22 04:31:24;;;;;;;4.30;3.50;;;-0.90;99.90;;;;;;5031531;28;20427;-51
2021/12/22 04:33:50;;;;;;;5.67;3.70;;;-1.00;99.90;;;;;;5032351;28;20801;-49
2021/12/22 04:36:16;;;;;;;5.60;4.03;;;-1.10;99.90;;;;;;5031911;28;20415;-54
2021/12/22 04:38:41;;;;;;;4.23;3.40;;;-1.10;99.90;;;;;;5031839;28;20176;-50
2021/12/22 04:41:07;;;;;;;4.13;3.57;;;-1.10;99.90;;;;;;5031862;28;20695;-50
2021/12/22 04:43:33;;;;;;;4.13;3.53;;;-1.10;99.90;;;;;;5031301;28;20179;-49
2021/12/22 04:45:58;;;;;;;4.97;3.67;;;-1.10;99.90;;;;;;5031558;28;20199;-50
2021/12/22 04:48:24;;;;;;;4.80;3.90;;;-1.10;99.90;;;;;;5030355;28;20641;-50
2021/12/22 04:50:50;;;;;;;5.87;3.87;;;-1.10;99.90;;;;;;5031317;28;20164;-50
2021/12/22 04:53:22;;;;;;;4.67;3.60;;;-1.20;99.90;;;;;;5031196;28;20221;-49
2021/12/22 04:55:47;;;;;;;4.30;3.70;;;-1.20;99.90;;;;;;5031194;28;20513;-52
2021/12/22 04:58:13;;;;;;;5.17;3.80;;;-1.20;99.90;;;;;;5031553;28;20907;-50
2021/12/22 05:00:39;;;;;;;4.60;3.83;;;-1.20;99.90;;;;;;5031773;28;20180;-52
2021/12/22 05:03:05;;;;;;;5.03;3.67;;;-1.30;99.90;;;;;;5031660;28;20210;-54
2021/12/22 05:05:31;;;;;;;4.63;3.70;;;-1.30;99.90;;;;;;5030973;28;20541;-51
2021/12/22 05:07:57;;;;;;;4.83;3.20;;;-1.30;99.90;;;;;;5031431;28;20518;-49
2021/12/22 05:10:24;;;;;;;4.37;3.60;;;-1.30;99.90;;;;;;5031358;28;20168;-51
2021/12/22 05:12:51;;;;;;;4.97;3.77;;;-1.40;99.90;;;;;;5031238;28;20803;-49
2021/12/22 05:15:19;;;;;;;5.93;3.60;;;-1.30;99.90;;;;;;5031077;28;20876;-49
2021/12/22 05:20:13;;;;;;;6.03;4.03;;;-1.40;99.90;;;;;;5031558;28;20426;-51
2021/12/22 05:22:39;;;;;;;4.67;3.70;;;-1.40;99.90;;;;;;5031026;28;20211;-50
2021/12/22 05:25:07;;;;;;;4.17;3.40;;;-1.40;99.90;;;;;;5031086;28;20813;-50
2021/12/22 05:27:34;;;;;;;4.83;3.80;;;-1.40;99.90;;;;;;5031117;28;20403;-52
2021/12/22 05:30:01;;;;;;;4.27;3.50;;;-1.40;99.90;;;;;;5029601;28;20419;-49
2021/12/22 05:32:31;;;;;;;5.83;4.10;;;-1.40;99.90;;;;;;5030865;28;20808;-49
2021/12/22 05:34:58;;;;;;;4.53;3.47;;;-1.40;99.90;;;;;;5031136;28;20419;-52
2021/12/22 05:37:24;;;;;;;4.57;3.90;;;-1.40;99.90;;;;;;5030758;28;20468;-53
2021/12/22 05:39:49;;;;;;;4.87;3.67;;;-1.40;99.90;;;;;;5031389;28;20846;-53
2021/12/22 05:42:15;;;;;;;6.40;3.53;;;-1.40;99.90;;;;;;5031133;28;20199;-53
2021/12/22 05:44:42;;;;;;;4.37;3.60;;;-1.40;99.90;;;;;;5030995;28;20210;-49
2021/12/22 05:47:08;;;;;;;3.83;3.33;;;-1.40;99.90;;;;;;5031071;28;20673;-49
2021/12/22 05:49:34;;;;;;;4.63;3.80;;;;;;;;;;5030680;28;20426;-50
2021/12/22 05:51:59;;;;;;;4.83;3.83;;;-1.40;99.90;;;;;;5031037;28;20791;-46
2021/12/22 05:54:25;;;;;;;5.20;4.10;;;-1.50;99.90;;;;;;5030621;28;20410;-52
2021/12/22 05:56:50;;;;;;;4.97;3.33;;;-1.50;99.90;;;;;;5029910;28;20176;-50
2021/12/22 05:59:16;;;;;;;5.37;3.10;;;-1.50;99.90;;;;;;5027899;28;20234;-49
2021/12/22 06:01:41;;;;;;;4.70;3.60;;;-1.40;99.90;;;;;;5030667;28;20223;-49
2021/12/22 06:04:07;;;;;;;4.57;3.57;;;-0.80;99.90;;;;;;5016410;28;20230;-51
2021/12/22 06:06:33;;;;;;;4.10;3.17;;;;;;;;;;5033821;28;20262;-47
2021/12/22 06:08:59;;;;;;;6.83;3.60;;;-1.40;99.90;;;;;;5034396;28;20313;-47
2021/12/22 06:11:24;;;;;;;6.23;3.97;;;-1.50;99.90;;;;;;5033616;28;20196;-51
2021/12/22 06:13:50;;;;;;;5.43;3.77;;;-1.50;99.90;;;;;;5033009;28;20188;-49
2021/12/22 06:16:16;;;;;;;4.80;3.50;;;-1.50;99.90;;;;;;5032328;28;20180;-54
2021/12/22 06:18:44;;;;;;;5.17;3.67;;;-1.50;99.90;;;;;;5020629;28;20238;-50
2021/12/22 06:21:13;;;;;;;5.33;3.53;;;-1.80;99.90;;;;;;5032312;28;20172;-50
2021/12/22 06:23:39;;;;;;;4.70;3.80;;;-1.60;99.90;;;;;;5014355;28;20788;-50
2021/12/22 06:26:05;;;;;;;4.00;3.40;;;-1.90;99.90;;;;;;5014375;28;20470;-53
2021/12/22 06:28:31;;;;;;;5.13;3.90;;;-1.60;99.90;;;;;;5014300;28;20172;-51
2021/12/22 06:30:57;;;;;;;5.23;3.90;;;;;;;;;;5020398;28;20511;-51
2021/12/22 06:33:22;;;;;;;4.37;3.63;;;-1.60;99.90;;;;;;5033809;28;20168;-50
2021/12/22 06:35:49;;;;;;;4.67;3.73;;;-1.50;99.90;;;;;;5034044;28;20533;-50
2021/12/22 06:38:15;;;;;;;6.13;3.87;;;-1.80;99.90;;;;;;5034023;28;20180;-50
2021/12/22 06:40:41;;;;;;;5.80;3.97;;;-1.80;99.90;;;;;;5034137;28;20457;-48
2021/12/22 06:43:07;;;;;;;4.40;3.70;;;-1.80;99.90;;;;;;5034303;28;20434;-51
2021/12/22 06:45:32;;;;;;;4.30;3.53;;;-1.90;99.90;;;;;;5033351;28;20456;-50
2021/12/22 06:47:58;;;;;;;5.27;3.40;;;-1.80;99.90;;;;;;5034085;28;20180;-52
2021/12/22 06:50:24;;;;;;;4.57;3.70;;;-1.90;99.90;;;;;;5033656;28;20704;-50
2021/12/22 06:52:49;;;;;;;4.83;3.30;;;-1.80;99.90;;;;;;5046297;28;20203;-49
2021/12/22 06:55:15;;;;;;;6.40;4.40;;;-1.90;99.90;;;;;;5033469;28;20255;-51
2021/12/22 06:57:40;;;;;;;4.53;3.50;;;-1.90;99.90;;;;;;5041440;28;20590;-54
2021/12/22 07:00:10;;;;;;;4.60;3.70;;;-2.00;99.90;;;;;;5053714;28;20182;-50
2021/12/22 07:02:38;;;;;;;5.70;3.90;;;-2.00;99.90;;;;;;5053448;28;20229;-50
2021/12/22 07:05:06;;;;;;;4.33;3.27;;;-2.00;99.90;;;;;;5053306;28;20486;-50
2021/12/22 07:07:32;;;;;;;5.20;3.83;;;-2.00;99.90;;;;;;5053439;28;20410;-50
2021/12/22 07:09:57;;;;;;;4.80;3.80;;;-2.00;99.90;;;;;;5053232;28;20492;-50
2021/12/22 07:12:23;;;;;;;4.37;3.57;;;-2.00;99.90;;;;;;5032914;28;20203;-49
2021/12/22 07:14:49;;;;;;;6.60;3.70;;;-1.90;99.90;;;;;;5032501;28;20175;-49
2021/12/22 07:17:14;;;;;;;4.63;3.50;;;-1.90;99.90;;;;;;5033483;28;20183;-50
2021/12/22 07:19:40;;;;;;;4.63;3.90;;;-1.90;99.90;;;;;;5032401;28;20183;-52
2021/12/22 07:22:06;;;;;;;5.73;4.00;;;-1.90;99.90;;;;;;5060302;22;20231;-46
2021/12/22 07:24:32;;;;;;;4.57;4.00;;;-1.90;99.90;;;;;;5029488;28;20212;-46
2021/12/22 07:26:58;;;;;;;6.23;4.80;;;-1.80;99.90;;;;;;5031390;28;20164;-49
2021/12/22 07:29:23;;;;;;;5.87;4.27;;;-1.80;99.90;;;;;;5032333;28;20399;-51
2021/12/22 07:31:49;;;;;;;5.70;4.00;;;-1.90;99.90;;;;;;5038796;28;20806;-50
2021/12/22 07:34:38;;;;;;;5.97;4.43;;;-2.00;99.90;;;;;;5052703;28;20170;-48
2021/12/22 07:37:09;;;;;;;6.70;4.93;;;-2.00;99.90;;;;;;5052870;28;20171;-49
2021/12/22 07:39:34;;;;;;;6.07;4.10;;;-1.90;99.90;;;;;;5034095;28;20406;-48
2021/12/22 07:42:00;;;;;;;4.73;4.10;;;-1.80;99.90;;;;;;5052877;28;20438;-48
2021/12/22 07:44:25;;;;;;;6.40;4.37;;;-1.70;99.90;;;;;;5052489;28;20175;-49
2021/12/22 07:46:51;;;;;;;5.10;3.90;;;-1.60;99.90;;;;;;5052424;28;20167;-48
2021/12/22 07:49:17;;;;;;;6.57;4.60;;;-1.50;99.90;;;;;;5052622;28;20182;-48
2021/12/22 07:51:42;;;;;;;6.93;5.23;;;-1.50;99.90;;;;;;5052250;28;20183;-49
2021/12/22 07:54:09;;;;;;;8.03;5.80;;;-1.40;99.90;;;;;;5052634;28;20179;-52
2021/12/22 07:56:34;;;;;;;7.00;5.30;;;-1.40;99.90;;;;;;5033419;28;20180;-52
2021/12/22 07:59:00;;;;;;;7.93;5.67;;;-1.30;99.90;;;;;;5052223;28;20475;-46
2021/12/22 08:01:25;;;;;;;8.10;6.03;;;-1.30;99.90;;;;;;5052198;28;20237;-50
2021/12/22 08:03:51;;;;;;;7.07;5.73;;;-1.20;99.90;;;;;;5052611;28;20559;-51
2021/12/22 08:06:16;;;;;;;9.63;6.30;;;-1.10;99.90;;;;;;5051933;28;20227;-46
2021/12/22 08:08:42;;;;;;;7.63;6.20;;;-1.00;99.90;;;;;;5034782;28;20171;-49
2021/12/22 08:11:08;;;;;;;7.63;6.23;;;-0.80;99.90;;;;;;5052263;28;20537;-49
2021/12/22 08:13:34;;;;;;;7.00;5.53;;;-0.70;99.90;;;;;;5052117;28;20187;-51
2021/12/22 08:16:00;;;;;;;5.93;4.80;;;-0.40;99.90;;;;;;5051779;28;20212;-53
2021/12/22 08:18:26;;;;;;;6.30;4.90;;;0.20;99.90;;;;;;5052048;28;20473;-50
2021/12/22 08:20:52;;;;;;;5.47;4.43;;;1.10;99.90;;;;;;5052213;28;20818;-51
2021/12/22 08:23:18;;;;;;;5.10;4.10;;;2.40;99.90;;;;;;5051686;28;20441;-54
2021/12/22 08:25:46;;;;;;;4.77;3.97;;;3.90;99.90;;;;;;5051615;28;20190;-49
2021/12/22 08:28:11;;;;;;;5.37;4.03;;;5.20;98.00;;;;;;5051793;28;20650;-51
2021/12/22 08:30:38;;;;;;;5.97;4.27;;;6.20;95.50;;;;;;5050971;28;20202;-54
2021/12/22 08:33:15;;;;;;;5.60;4.87;;;6.90;93.70;;;;;;5051616;28;20186;-53
2021/12/22 08:41:11;;;;;;;6.23;5.33;;;7.50;90.20;;;;;;4990220;28;20228;-53
2021/12/22 08:43:37;;;;;;;7.73;6.10;;;7.60;89.30;;;;;;4989993;28;20209;-49
2021/12/22 08:46:02;;;;;;;6.33;5.37;;;7.90;87.50;;;;;;4989842;28;20240;-54
2021/12/22 08:48:28;;;;;;;7.10;5.80;;;8.50;85.60;;;;;;4990126;28;20654;-49
2021/12/22 08:50:54;;;;;;;6.43;5.17;;;8.80;83.80;;;;;;4990186;28;20276;-53
2021/12/22 08:53:19;;;;;;;6.30;5.30;;;9.00;82.30;;;;;;4989848;28;20657;-49
2021/12/22 08:55:45;;;;;;;5.93;5.23;;;9.10;81.60;;;;;;4989965;28;20212;-50
2021/12/22 08:58:10;;;;;;;8.73;5.30;;;9.10;81.20;;;;;;4990153;28;20180;-52
2021/12/22 09:00:38;;;;;;;6.07;5.20;;;10.20;91.50;;;;;;4990271;28;20664;-47
2021/12/22 09:03:04;;;;;;;8.77;6.37;;;11.90;90.80;;;;;;4990072;28;20296;-52
2021/12/22 09:05:30;;;;;;;6.17;5.20;;;13.80;90.20;;;;;;4989773;28;20312;-51
2021/12/22 09:07:55;;;;;;;6.73;5.90;;;16.00;68.90;;;;;;4990220;28;20187;-51
2021/12/22 09:10:21;;;;;;;7.63;6.40;;;18.00;56.20;;;;;;4973849;28;20593;-54
2021/12/22 09:12:47;;;;;;;8.47;5.20;;;19.30;54.00;;;;;;4989835;28;20224;-50
2021/12/22 09:15:13;;;;;;;5.60;4.97;;;20.70;51.40;;;;;;5012184;28;20194;-53
2021/12/22 09:17:39;;;;;;;7.10;5.28;;;22.40;47.10;;;;;;5051648;28;20181;-48
2021/12/22 09:20:05;;;;;;;5.55;4.97;;;23.80;43.30;;;;;;5051400;28;20258;-47
2021/12/22 09:22:31;;;;;;;4.90;4.40;;;25.00;41.00;;;;;;5051179;28;20207;-54
2021/12/22 09:24:57;;;;;;;5.28;4.13;;;26.10;38.60;;;;;;5051224;28;20209;-53
2021/12/22 09:27:22;;;;;;;4.85;3.85;;;27.10;36.00;;;;;;5051256;28;20167;-53
2021/12/22 09:29:48;;;;;;;5.38;4.15;;;28.10;34.50;;;;;;5051441;28;20175;-49
2021/12/22 09:32:16;;;;;;;4.63;4.22;;;28.90;32.60;;;;;;5051015;28;20199;-50
2021/12/22 09:34:45;;;;;;;4.45;4.00;;;29.70;31.00;;;;;;5051150;28;20194;-52
2021/12/22 09:37:11;;;;;;;4.18;3.58;;;30.30;29.70;;;;;;5051542;28;20171;-54
2021/12/22 09:39:37;;;;;;;4.35;3.95;;;30.70;29.10;;;;;;5055115;28;20717;-48
2021/12/22 09:42:04;;;;;;;4.43;4.03;;;31.20;28.40;;;;;;5054677;28;20203;-53
2021/12/22 09:44:32;;;;;;;3.70;3.40;;;31.50;27.40;;;;;;5055188;28;20682;-52
2021/12/22 09:46:59;;;;;;;3.55;3.25;;;31.70;27.50;;;;;;5054808;28;20178;-52
2021/12/22 09:52:18;;;;;;;3.58;3.28;;;32.00;26.40;;;;;;5055091;28;20195;-55
2021/12/22 09:54:54;;;;;;;3.75;3.45;;;32.10;26.30;;;;;;5054758;28;20175;-54
2021/12/22 09:57:22;;;;;;;4.07;3.25;;;32.30;25.30;;;;;;5054790;28;20171;-55
2021/12/22 09:59:51;;;;;;;3.05;2.78;;;32.30;25.10;;;;;;5054935;28;20206;-54
2021/12/22 10:02:18;;;;;;;3.28;2.85;;;32.30;24.90;;;;;;5036383;28;20675;-58
2021/12/22 10:04:45;;;;;;;3.03;2.83;;;32.50;25.10;;;;;;5054515;28;20211;-55
2021/12/22 10:07:19;;;;;;;3.75;3.30;;;32.60;24.30;;;;;;5036946;28;20197;-58
2021/12/22 10:09:46;;;;;;;4.38;3.97;;;32.40;24.20;;;;;;5054587;28;20163;-51
2021/12/22 10:12:22;;;;;;;3.83;3.42;;;32.20;24.50;;;;;;5054302;28;20190;-55
2021/12/22 10:14:53;;;;;;;3.13;2.88;;;31.90;24.60;;;;;;5054242;28;20269;-54
2021/12/22 10:17:38;;;;;;;3.63;3.20;;;31.40;25.10;;;;;;5054540;28;20179;-55
2021/12/22 10:20:09;;;;;;;3.50;3.20;;;31.60;24.80;;;;;;5054509;28;20182;-56
2021/12/22 10:22:39;;;;;;;3.53;3.22;;;32.00;24.50;;;;;;5054235;28;20203;-54
2021/12/22 10:25:22;;;;;;;3.33;3.05;;;32.30;24.40;;;;;;5053759;28;20221;-55
2021/12/22 10:28:09;;;;;;;6.00;5.50;;;32.50;24.40;;;;;;5054473;28;20213;-55
2021/12/22 10:30:41;;;;;;;4.60;4.20;;;32.90;24.10;;;;;;5054132;28;20159;-54
2021/12/22 10:33:10;;;;;;;4.30;3.90;;;32.90;23.60;;;;;;5054104;28;20560;-57
2021/12/22 10:35:40;;;;;;;4.38;3.97;;;32.10;24.20;;;;;;5053985;28;20167;-55
2021/12/22 10:38:08;;;;;;;4.55;4.15;;;32.00;23.90;;;;;;5054396;28;20179;-55
2021/12/22 10:40:40;;;;;;;4.65;4.25;;;31.50;24.90;;;;;;5054024;28;20202;-55
2021/12/22 10:43:07;;;;;;;5.15;4.63;;;31.50;24.40;;;;;;5053991;28;20195;-57
2021/12/22 10:45:35;;;;;;;5.15;4.65;;;31.60;24.30;;;;;;5053812;28;20214;-56
2021/12/22 10:51:08;;;;;;;4.00;3.70;;;31.10;24.50;;;;;;5053364;28;20595;-57
2021/12/22 10:53:49;;;;;;;5.80;5.22;;;30.80;24.50;;;;;;5054131;28;20862;-52
2021/12/22 10:56:43;;;;;;;3.75;3.45;;;30.90;24.50;;;;;;5053445;28;20194;-53
2021/12/22 10:59:18;;;;;;;3.53;3.22;;;31.00;24.40;;;;;;5051287;28;20191;-54
2021/12/22 11:01:48;;;;;;;3.75;3.35;;;30.90;24.50;;;;;;5053578;28;20265;-54
2021/12/22 11:04:22;;;;;;;2.90;2.70;;;31.20;24.70;;;;;;5053890;28;20233;-52
2021/12/22 11:06:50;;;;;;;3.10;2.80;;;31.60;24.60;;;;;;5053501;28;20164;-53
2021/12/22 11:09:17;;;;;;;3.30;3.00;;;32.10;24.20;;;;;;5053779;28;20254;-53
2021/12/22 11:11:44;;;;;;;3.33;3.03;;;32.30;24.00;;;;;;5053500;28;20221;-51
2021/12/22 11:14:13;;;;;;;2.88;2.67;;;32.50;23.40;;;;;;5053601;28;20172;-52
2021/12/22 11:16:57;;;;;;;3.20;3.00;;;32.30;23.80;;;;;;5053228;28;20826;-50
2021/12/22 11:19:25;;;;;;;3.22;2.92;;;32.30;23.60;;;;;;5053660;28;20225;-52
2021/12/22 11:22:14;;;;;;;4.28;3.88;;;32.00;23.50;;;;;;5053190;28;20767;-55
2021/12/22 11:24:47;;;;;;;3.50;3.20;;;30.70;24.80;;;;;;5053189;28;20186;-55
2021/12/22 11:27:15;;;;;;;3.40;3.10;;;29.80;25.00;;;;;;5053258;28;20177;-53
2021/12/22 11:29:45;;;;;;;2.85;2.65;;;29.70;24.80;;;;;;5053482;28;20179;-50
2021/12/22 11:32:13;;;;;;;3.10;2.90;;;29.40;24.90;;;;;;5053036;28;20191;-53
2021/12/22 11:34:41;;;;;;;3.35;3.03;;;29.20;24.80;;;;;;5052807;28;20174;-60
2021/12/22 11:37:10;;;;;;;2.70;2.50;;;29.00;25.40;;;;;;5053243;28;20168;-57
2021/12/22 11:39:36;;;;;;;2.92;2.60;;;28.70;25.00;;;;;;5053027;28;20171;-51
2021/12/22 11:42:08;;;;;;;3.80;2.70;;;28.20;25.20;;;;;;5052794;28;20202;-53
2021/12/22 11:44:36;;;;;;;2.95;2.60;;;27.70;25.80;;;;;;5052924;28;20190;-53
2021/12/22 11:47:09;;;;;;;2.67;2.47;;;27.30;26.00;;;;;;5052832;28;20168;-52
2021/12/22 11:49:37;;;;;;;2.95;2.45;;;26.90;26.10;;;;;;5052800;28;20763;-57
2021/12/22 11:52:37;;;;;;;2.70;2.50;;;27.10;26.00;;;;;;5051974;28;20238;-53
2021/12/22 11:55:16;;;;;;;2.45;2.28;;;27.10;25.70;;;;;;5051935;28;20198;-53
2021/12/22 11:57:45;;;;;;;2.60;2.40;;;26.10;26.10;;;;;;5049741;28;20167;-57
2021/12/22 12:00:33;;;;;;;2.60;2.40;;;25.60;26.80;;;;;;5051050;28;20168;-51
2021/12/22 12:03:19;;;;;;;2.72;2.53;;;25.40;26.90;;;;;;5052496;28;20329;-52
2021/12/22 12:06:11;;;;;;;2.92;2.40;;;25.00;26.90;;;;;;5052314;28;20178;-52
2021/12/22 12:08:52;;;;;;;3.25;2.50;;;23.20;27.70;;;;;;5052718;28;20172;-54
2021/12/22 12:11:36;;;;;;;3.83;2.80;;;21.90;29.30;;;;;;5052109;28;20582;-52
2021/12/22 12:14:08;;;;;;;2.70;2.50;;;21.70;29.10;;;;;;5052820;28;20178;-52
2021/12/22 12:22:36;;;;;;;3.00;2.70;;;21.40;29.00;;;;;;5052235;28;20797;-53
2021/12/22 12:25:09;;;;;;;3.67;2.80;;;21.60;29.30;;;;;;5052102;28;20179;-52
2021/12/22 12:27:54;;;;;;;2.80;2.15;;;21.40;29.20;;;;;;5052197;28;20167;-56
2021/12/22 12:30:41;;;;;;;2.90;2.60;;;21.20;29.40;;;;;;5052176;28;20179;-52
2021/12/22 12:33:27;;;;;;;2.55;2.35;;;21.30;29.00;;;;;;5052002;28;20191;-49
2021/12/22 12:36:08;;;;;;;3.08;2.67;;;21.10;29.30;;;;;;5051710;28;20282;-53
2021/12/22 12:38:40;;;;;;;3.17;2.88;;;20.60;29.70;;;;;;5052027;28;20164;-49
2021/12/22 12:41:14;;;;;;;3.45;2.70;;;19.80;30.00;;;;;;5052002;28;20178;-49
2021/12/22 12:46:20;;;;;;;3.50;3.20;;;18.70;31.20;;;;;;5051748;28;20545;-51
2021/12/22 12:48:53;;;;;;;3.63;2.92;;;18.20;31.70;;;;;;5051858;28;20185;-49
2021/12/22 12:51:28;;;;;;;2.97;2.78;;;17.90;31.80;;;;;;5051727;28;20206;-48
2021/12/22 12:53:57;;;;;;;3.70;3.30;;;17.80;31.80;;;;;;5051780;28;20171;-54
2021/12/22 12:56:33;;;;;;;3.80;3.10;;;16.90;33.20;;;;;;5051550;28;20206;-53
2021/12/22 12:58:59;;;;;;;3.50;3.20;;;17.00;33.30;;;;;;5051656;28;20182;-49
2021/12/22 13:01:46;;;;;;;3.43;3.13;;;16.80;33.30;;;;;;5051630;28;20652;-55
2021/12/22 13:04:23;;;;;;;3.40;3.10;;;16.80;33.40;;;;;;5051719;28;20185;-47
2021/12/22 13:07:15;;;;;;;4.70;2.80;;;17.10;33.30;;;;;;5051471;28;20178;-52
2021/12/22 13:09:43;;;;;;;4.83;3.27;;;17.00;32.90;;;;;;5047493;28;20195;-53
2021/12/22 13:17:34;;;;;;;3.23;2.93;;;16.30;33.60;;;;;;5051643;28;20552;-48
2021/12/22 13:20:00;;;;;;;3.90;3.40;;;15.60;34.60;;;;;;5051452;28;20221;-54
2021/12/22 13:22:30;;;;;;;3.63;3.33;;;15.30;35.30;;;;;;5108840;22;20239;-54
2021/12/22 13:25:12;;;;;;;3.87;3.47;;;15.20;35.40;;;;;;5013701;28;20219;-50
2021/12/22 13:27:46;;;;;;;3.60;3.30;;;15.10;35.30;;;;;;5021564;28;20191;-49
2021/12/22 13:30:31;;;;;;;3.97;3.50;;;14.90;35.40;;;;;;5026087;28;20167;-51
2021/12/22 13:33:09;;;;;;;3.77;3.47;;;15.50;36.50;;;;;;5012623;28;20220;-50
2021/12/22 13:35:39;;;;;;;3.70;3.27;;;14.70;35.90;;;;;;5010957;28;20289;-50
2021/12/22 13:38:43;;;;;;;3.90;3.47;;;14.40;36.50;;;;;;5011723;28;20168;-51
2021/12/22 13:41:16;;;;;;;5.23;3.30;;;14.10;37.30;;;;;;5011129;28;20229;-51